sensor_id;sensor_type;location;lat;lon;timestamp;pressure;altitude;pressure_sealevel;temperature;humidity
75420;BME280;63998;52.488;13.428;2023-06-22T00:00:56;101369.22;;;23.83;54.30
75420;BME280;63998;52.488;13.428;2023-06-22T00:03:23;101378.22;;;23.79;54.49
75420;BME280;63998;52.488;13.428;2023-06-22T00:05:49;101373.84;;;23.78;54.44
75420;BME280;63998;52.488;13.428;2023-06-22T00:08:16;101373.03;;;23.76;54.41
75420;BME280;63998;52.488;13.428;2023-06-22T00:10:42;101376.63;;;23.75;54.36
75420;BME280;63998;52.488;13.428;2023-06-22T00:13:08;101382.22;;;23.69;54.51
75420;BME280;63998;52.488;13.428;2023-06-22T00:15:34;101374.31;;;23.68;54.61
75420;BME280;63998;52.488;13.428;2023-06-22T00:18:00;101379.03;;;23.61;54.81
75420;BME280;63998;52.488;13.428;2023-06-22T00:20:28;101385.31;;;23.58;54.92
75420;BME280;63998;52.488;13.428;2023-06-22T00:22:54;101388.03;;;23.57;54.82
75420;BME280;63998;52.488;13.428;2023-06-22T00:25:20;101387.22;;;23.55;54.98
75420;BME280;63998;52.488;13.428;2023-06-22T00:27:46;101395.31;;;23.52;54.96
75420;BME280;63998;52.488;13.428;2023-06-22T00:30:11;101407.88;;;23.47;55.21
75420;BME280;63998;52.488;13.428;2023-06-22T00:32:37;101401.75;;;23.45;55.39
75420;BME280;63998;52.488;13.428;2023-06-22T00:35:02;101398.31;;;23.43;55.54
75420;BME280;63998;52.488;13.428;2023-06-22T00:37:28;101400.22;;;23.39;55.58
75420;BME280;63998;52.488;13.428;2023-06-22T00:39:57;101402.16;;;23.36;55.68
75420;BME280;63998;52.488;13.428;2023-06-22T00:42:22;101401.44;;;23.31;55.76
75420;BME280;63998;52.488;13.428;2023-06-22T00:44:48;101401.56;;;23.27;56.07
75420;BME280;63998;52.488;13.428;2023-06-22T00:47:16;101400.59;;;23.30;56.19
75420;BME280;63998;52.488;13.428;2023-06-22T00:49:42;101397.88;;;23.32;56.02
75420;BME280;63998;52.488;13.428;2023-06-22T00:52:07;101403.28;;;23.28;56.30
75420;BME280;63998;52.488;13.428;2023-06-22T00:54:38;101401.69;;;23.24;56.38
75420;BME280;63998;52.488;13.428;2023-06-22T00:57:04;101395.59;;;23.22;56.30
75420;BME280;63998;52.488;13.428;2023-06-22T00:59:30;101402.75;;;23.20;56.24
75420;BME280;63998;52.488;13.428;2023-06-22T01:01:57;101402.91;;;23.16;56.79
75420;BME280;63998;52.488;13.428;2023-06-22T01:04:24;101409.19;;;23.13;56.84
75420;BME280;63998;52.488;13.428;2023-06-22T01:07:08;101411.06;;;23.11;57.03
75420;BME280;63998;52.488;13.428;2023-06-22T01:09:49;101404.97;;;23.09;56.85
75420;BME280;63998;52.488;13.428;2023-06-22T01:12:18;101406.75;;;23.09;57.11
75420;BME280;63998;52.488;13.428;2023-06-22T01:15:10;101413.03;;;23.06;57.39
75420;BME280;63998;52.488;13.428;2023-06-22T01:17:35;101414.88;;;23.04;57.43
75420;BME280;63998;52.488;13.428;2023-06-22T01:20:02;101414.88;;;23.04;57.53
75420;BME280;63998;52.488;13.428;2023-06-22T01:22:30;101419.31;;;23.04;57.64
75420;BME280;63998;52.488;13.428;2023-06-22T01:25:13;101409.69;;;23.01;57.90
75420;BME280;63998;52.488;13.428;2023-06-22T01:28:24;101417.69;;;23.00;58.20
75420;BME280;63998;52.488;13.428;2023-06-22T01:30:46;101416.84;;;22.99;58.10
75420;BME280;63998;52.488;13.428;2023-06-22T01:33:14;101420.44;;;22.98;58.08
75420;BME280;63998;52.488;13.428;2023-06-22T01:35:40;101416.97;;;22.96;58.15
75420;BME280;63998;52.488;13.428;2023-06-22T01:38:08;101419.78;;;22.91;58.57
75420;BME280;63998;52.488;13.428;2023-06-22T01:40:35;101433.09;;;22.90;58.65
75420;BME280;63998;52.488;13.428;2023-06-22T01:43:02;101427.06;;;22.86;58.73
75420;BME280;63998;52.488;13.428;2023-06-22T01:45:28;101436.78;;;22.86;58.88
75420;BME280;63998;52.488;13.428;2023-06-22T01:47:54;101435.06;;;22.85;58.96
75420;BME280;63998;52.488;13.428;2023-06-22T01:50:20;101434.25;;;22.83;59.16
75420;BME280;63998;52.488;13.428;2023-06-22T01:52:46;101436.03;;;22.82;59.26
75420;BME280;63998;52.488;13.428;2023-06-22T01:55:11;101435.22;;;22.80;59.21
75420;BME280;63998;52.488;13.428;2023-06-22T01:57:36;101430.63;;;22.85;59.36
75420;BME280;63998;52.488;13.428;2023-06-22T02:00:09;101437.81;;;22.82;59.55
75420;BME280;63998;52.488;13.428;2023-06-22T02:05:09;101435.28;;;22.79;59.69
75420;BME280;63998;52.488;13.428;2023-06-22T02:07:41;101435.28;;;22.79;59.75
75420;BME280;63998;52.488;13.428;2023-06-22T02:10:09;101437.81;;;22.82;59.65
75420;BME280;63998;52.488;13.428;2023-06-22T02:12:38;101436.78;;;22.86;59.71
75420;BME280;63998;52.488;13.428;2023-06-22T02:15:05;101432.34;;;22.86;59.83
75420;BME280;63998;52.488;13.428;2023-06-22T02:17:31;101430.75;;;22.82;59.87
75420;BME280;63998;52.488;13.428;2023-06-22T02:19:58;101441.56;;;22.76;59.92
75420;BME280;63998;52.488;13.428;2023-06-22T02:22:23;101446.09;;;22.73;60.27
75420;BME280;63998;52.488;13.428;2023-06-22T02:24:49;101455.81;;;22.72;60.33
75420;BME280;63998;52.488;13.428;2023-06-22T02:27:14;101447.16;;;22.67;60.59
75420;BME280;63998;52.488;13.428;2023-06-22T02:29:40;101455.97;;;22.68;60.52
75420;BME280;63998;52.488;13.428;2023-06-22T02:32:05;101454.25;;;22.67;61.03
75420;BME280;63998;52.488;13.428;2023-06-22T02:34:31;101459.59;;;22.65;60.87
75420;BME280;63998;52.488;13.428;2023-06-22T02:36:58;101458.72;;;22.65;60.84
75420;BME280;63998;52.488;13.428;2023-06-22T02:39:26;101457.84;;;22.64;60.75
75420;BME280;63998;52.488;13.428;2023-06-22T02:41:52;101451.59;;;22.67;61.20
75420;BME280;63998;52.488;13.428;2023-06-22T02:44:18;101451.59;;;22.67;61.20
75420;BME280;63998;52.488;13.428;2023-06-22T02:46:44;101452.47;;;22.67;61.09
75420;BME280;63998;52.488;13.428;2023-06-22T02:49:10;101453.44;;;22.65;61.27
75420;BME280;63998;52.488;13.428;2023-06-22T02:51:38;101451.69;;;22.64;61.45
75420;BME280;63998;52.488;13.428;2023-06-22T02:54:04;101451.69;;;22.64;61.58
75420;BME280;63998;52.488;13.428;2023-06-22T02:56:30;101450.91;;;22.62;61.87
75420;BME280;63998;52.488;13.428;2023-06-22T02:58:56;101453.56;;;22.62;61.95
75420;BME280;63998;52.488;13.428;2023-06-22T03:01:29;101450.91;;;22.62;61.78
75420;BME280;63998;52.488;13.428;2023-06-22T03:03:58;101444.00;;;22.57;62.19
75420;BME280;63998;52.488;13.428;2023-06-22T03:06:23;101450.09;;;22.60;62.13
75420;BME280;63998;52.488;13.428;2023-06-22T03:08:58;101448.38;;;22.58;61.99
75420;BME280;63998;52.488;13.428;2023-06-22T03:11:23;101447.47;;;22.60;62.10
75420;BME280;63998;52.488;13.428;2023-06-22T03:13:49;101452.84;;;22.56;62.34
75420;BME280;63998;52.488;13.428;2023-06-22T03:16:14;101453.72;;;22.57;62.20
75420;BME280;63998;52.488;13.428;2023-06-22T03:18:39;101453.78;;;22.55;62.15
75420;BME280;63998;52.488;13.428;2023-06-22T03:21:05;101454.94;;;22.48;62.85
75420;BME280;63998;52.488;13.428;2023-06-22T03:23:30;101445.25;;;22.47;62.42
75420;BME280;63998;52.488;13.428;2023-06-22T03:25:55;101446.16;;;22.46;62.60
75420;BME280;63998;52.488;13.428;2023-06-22T03:28:21;101445.25;;;22.47;62.33
75420;BME280;63998;52.488;13.428;2023-06-22T03:30:47;101453.88;;;22.52;62.11
75420;BME280;63998;52.488;13.428;2023-06-22T03:33:12;101447.91;;;22.47;62.21
75420;BME280;63998;52.488;13.428;2023-06-22T03:35:37;101442.66;;;22.46;62.13
75420;BME280;63998;52.488;13.428;2023-06-22T03:38:03;101454.22;;;22.43;61.95
75420;BME280;63998;52.488;13.428;2023-06-22T03:40:28;101456.88;;;22.43;62.17
75420;BME280;63998;52.488;13.428;2023-06-22T03:42:54;101454.22;;;22.43;61.86
75420;BME280;63998;52.488;13.428;2023-06-22T03:45:19;101457.69;;;22.45;61.83
75420;BME280;63998;52.488;13.428;2023-06-22T03:47:45;101449.59;;;22.50;61.65
75420;BME280;63998;52.488;13.428;2023-06-22T03:50:10;101452.28;;;22.48;61.58
75420;BME280;63998;52.488;13.428;2023-06-22T03:52:35;101450.16;;;22.33;61.10
75420;BME280;63998;52.488;13.428;2023-06-22T03:55:01;101455.72;;;22.26;61.14
75420;BME280;63998;52.488;13.428;2023-06-22T03:57:26;101444.41;;;22.22;61.04
75420;BME280;63998;52.488;13.428;2023-06-22T03:59:56;101449.59;;;22.25;61.23
75420;BME280;63998;52.488;13.428;2023-06-22T04:02:21;101450.38;;;22.27;60.92
75420;BME280;63998;52.488;13.428;2023-06-22T04:04:46;101447.19;;;22.17;60.88
75420;BME280;63998;52.488;13.428;2023-06-22T04:07:12;101450.22;;;22.07;60.82
75420;BME280;63998;52.488;13.428;2023-06-22T04:09:37;101456.09;;;22.15;60.84
75420;BME280;63998;52.488;13.428;2023-06-22T04:12:03;101459.72;;;22.12;60.74
75420;BME280;63998;52.488;13.428;2023-06-22T04:14:28;101457.81;;;22.16;60.83
75420;BME280;63998;52.488;13.428;2023-06-22T04:16:54;101461.44;;;22.13;60.57
75420;BME280;63998;52.488;13.428;2023-06-22T04:19:19;101461.34;;;22.16;60.50
75420;BME280;63998;52.488;13.428;2023-06-22T04:21:44;101455.78;;;22.24;60.23
75420;BME280;63998;52.488;13.428;2023-06-22T04:24:13;101469.31;;;22.15;60.01
75420;BME280;63998;52.488;13.428;2023-06-22T04:26:38;101474.44;;;22.21;60.25
75420;BME280;63998;52.488;13.428;2023-06-22T04:29:06;101472.25;;;22.32;60.45
75420;BME280;63998;52.488;13.428;2023-06-22T04:31:34;101481.94;;;22.33;60.34
75420;BME280;63998;52.488;13.428;2023-06-22T04:34:03;101482.94;;;22.29;60.28
75420;BME280;63998;52.488;13.428;2023-06-22T04:36:35;101480.22;;;22.32;60.18
75420;BME280;63998;52.488;13.428;2023-06-22T04:39:05;101482.94;;;22.29;60.38
75420;BME280;63998;52.488;13.428;2023-06-22T04:41:32;101482.09;;;22.29;60.14
75420;BME280;63998;52.488;13.428;2023-06-22T04:44:07;101484.69;;;22.30;59.87
75420;BME280;63998;52.488;13.428;2023-06-22T04:46:32;101495.50;;;22.24;59.63
75420;BME280;63998;52.488;13.428;2023-06-22T04:49:03;101487.47;;;22.26;59.60
75420;BME280;63998;52.488;13.428;2023-06-22T04:51:31;101486.22;;;22.37;59.75
75420;BME280;63998;52.488;13.428;2023-06-22T04:53:56;101486.66;;;22.50;59.43
75420;BME280;63998;52.488;13.428;2023-06-22T04:56:26;101486.94;;;22.66;58.93
75420;BME280;63998;52.488;13.428;2023-06-22T04:58:53;101488.91;;;22.61;57.92
75420;BME280;63998;52.488;13.428;2023-06-22T05:01:21;101486.75;;;22.72;57.77
75420;BME280;63998;52.488;13.428;2023-06-22T05:03:47;101491.88;;;22.76;57.73
75420;BME280;63998;52.488;13.428;2023-06-22T05:06:13;101485.59;;;22.79;57.24
75420;BME280;63998;52.488;13.428;2023-06-22T05:08:39;101487.91;;;22.88;57.35
75420;BME280;63998;52.488;13.428;2023-06-22T05:11:05;101490.56;;;22.88;57.34
75420;BME280;63998;52.488;13.428;2023-06-22T05:13:30;101480.47;;;22.99;57.57
75420;BME280;63998;52.488;13.428;2023-06-22T05:15:56;101480.22;;;23.05;57.36
75420;BME280;63998;52.488;13.428;2023-06-22T05:18:27;101490.19;;;22.99;57.03
75420;BME280;63998;52.488;13.428;2023-06-22T05:20:54;101490.34;;;22.94;57.09
75420;BME280;63998;52.488;13.428;2023-06-22T05:23:19;101490.41;;;22.92;57.12
75420;BME280;63998;52.488;13.428;2023-06-22T05:25:45;101492.94;;;22.96;57.19
75420;BME280;63998;52.488;13.428;2023-06-22T05:31:43;101493.44;;;23.28;56.65
75420;BME280;63998;52.488;13.428;2023-06-22T05:34:09;101488.94;;;23.31;56.61
75420;BME280;63998;52.488;13.428;2023-06-22T05:39:11;101483.19;;;23.64;55.70
75420;BME280;63998;52.488;13.428;2023-06-22T05:41:37;101493.63;;;23.69;55.35
75420;BME280;63998;52.488;13.428;2023-06-22T05:44:03;101503.69;;;23.61;55.46
75420;BME280;63998;52.488;13.428;2023-06-22T05:46:28;101501.16;;;23.58;54.97
75420;BME280;63998;52.488;13.428;2023-06-22T05:48:54;101504.31;;;23.44;54.86
75420;BME280;63998;52.488;13.428;2023-06-22T05:51:19;101510.72;;;23.39;54.90
75420;BME280;63998;52.488;13.428;2023-06-22T05:53:44;101521.31;;;23.39;55.05
75420;BME280;63998;52.488;13.428;2023-06-22T05:56:11;101520.19;;;23.46;55.01
75420;BME280;63998;52.488;13.428;2023-06-22T05:58:37;101518.16;;;23.52;54.80
75420;BME280;63998;52.488;13.428;2023-06-22T06:01:02;101516.16;;;23.59;54.67
75420;BME280;63998;52.488;13.428;2023-06-22T06:03:27;101520.66;;;23.79;54.33
75420;BME280;63998;52.488;13.428;2023-06-22T06:05:53;101507.22;;;23.83;53.98
75420;BME280;63998;52.488;13.428;2023-06-22T06:08:19;101514.66;;;23.95;54.03
75420;BME280;63998;52.488;13.428;2023-06-22T06:10:44;101519.03;;;23.96;53.50
75420;BME280;63998;52.488;13.428;2023-06-22T06:13:09;101510.94;;;23.99;53.24
75420;BME280;63998;52.488;13.428;2023-06-22T06:15:35;101511.38;;;24.11;53.41
75420;BME280;63998;52.488;13.428;2023-06-22T06:18:00;101502.22;;;24.18;53.06
75420;BME280;63998;52.488;13.428;2023-06-22T06:20:27;101496.53;;;24.27;52.87
75420;BME280;63998;52.488;13.428;2023-06-22T06:22:55;101497.88;;;24.37;52.57
75420;BME280;63998;52.488;13.428;2023-06-22T06:25:21;101496.75;;;24.43;52.67
75420;BME280;63998;52.488;13.428;2023-06-22T06:27:47;101503.44;;;24.51;52.79
75420;BME280;63998;52.488;13.428;2023-06-22T06:30:14;101495.06;;;24.60;52.27
75420;BME280;63998;52.488;13.428;2023-06-22T06:32:41;101503.81;;;24.62;51.86
75420;BME280;63998;52.488;13.428;2023-06-22T06:35:07;101513.34;;;24.68;51.59
75420;BME280;63998;52.488;13.428;2023-06-22T06:37:35;101517.66;;;24.70;51.24
75420;BME280;63998;52.488;13.428;2023-06-22T06:40:02;101514.72;;;24.77;51.15
75420;BME280;63998;52.488;13.428;2023-06-22T06:42:27;101515.31;;;24.83;50.94
75420;BME280;63998;52.488;13.428;2023-06-22T06:44:52;101525.03;;;24.84;50.80
75420;BME280;63998;52.488;13.428;2023-06-22T06:47:17;101507.16;;;24.67;49.73
75420;BME280;63998;52.488;13.428;2023-06-22T06:49:43;101510.63;;;24.69;50.49
75420;BME280;63998;52.488;13.428;2023-06-22T06:52:08;101503.28;;;24.75;50.49
75420;BME280;63998;52.488;13.428;2023-06-22T06:54:33;101505.19;;;24.73;50.20
75420;BME280;63998;52.488;13.428;2023-06-22T06:56:59;101496.72;;;24.63;50.11
75420;BME280;63998;52.488;13.428;2023-06-22T06:59:24;101509.31;;;24.59;49.71
75420;BME280;63998;52.488;13.428;2023-06-22T07:01:49;101501.16;;;24.62;49.80
75420;BME280;63998;52.488;13.428;2023-06-22T07:04:15;101498.38;;;24.65;49.43
75420;BME280;63998;52.488;13.428;2023-06-22T07:06:40;101493.81;;;24.69;49.08
75420;BME280;63998;52.488;13.428;2023-06-22T07:09:05;101486.56;;;24.73;48.73
75420;BME280;63998;52.488;13.428;2023-06-22T07:11:31;101480.91;;;24.80;48.64
75420;BME280;63998;52.488;13.428;2023-06-22T07:13:56;101483.34;;;24.85;48.28
75420;BME280;63998;52.488;13.428;2023-06-22T07:16:21;101476.31;;;24.84;47.70
75420;BME280;63998;52.488;13.428;2023-06-22T07:18:48;101469.72;;;24.92;48.04
75420;BME280;63998;52.488;13.428;2023-06-22T07:21:13;101471.47;;;25.12;48.15
75420;BME280;63998;52.488;13.428;2023-06-22T07:23:38;101471.31;;;25.15;47.28
75420;BME280;63998;52.488;13.428;2023-06-22T07:26:03;101469.16;;;25.23;47.59
75420;BME280;63998;52.488;13.428;2023-06-22T07:28:31;101465.56;;;25.43;47.48
75420;BME280;63998;52.488;13.428;2023-06-22T07:31:02;101457.50;;;25.63;47.42
75420;BME280;63998;52.488;13.428;2023-06-22T07:33:28;101464.06;;;25.73;46.79
75420;BME280;63998;52.488;13.428;2023-06-22T07:35:53;101461.66;;;25.69;46.02
75420;BME280;63998;52.488;13.428;2023-06-22T07:38:18;101461.16;;;25.61;46.17
75420;BME280;63998;52.488;13.428;2023-06-22T07:40:45;101456.03;;;25.56;45.84
75420;BME280;63998;52.488;13.428;2023-06-22T07:43:10;101456.16;;;25.72;46.04
75420;BME280;63998;52.488;13.428;2023-06-22T07:45:37;101458.84;;;25.89;45.58
75420;BME280;63998;52.488;13.428;2023-06-22T07:48:04;101451.97;;;26.02;45.19
75420;BME280;63998;52.488;13.428;2023-06-22T07:50:29;101459.47;;;26.11;44.20
75420;BME280;63998;52.488;13.428;2023-06-22T07:52:55;101455.31;;;26.23;44.72
75420;BME280;63998;52.488;13.428;2023-06-22T07:55:20;101458.59;;;26.30;43.78
75420;BME280;63998;52.488;13.428;2023-06-22T07:57:48;101450.72;;;26.44;43.90
75420;BME280;63998;52.488;13.428;2023-06-22T08:00:14;101451.09;;;26.54;43.92
75420;BME280;63998;52.488;13.428;2023-06-22T08:02:41;101453.03;;;26.67;43.44
75420;BME280;63998;52.488;13.428;2023-06-22T08:05:10;101453.50;;;26.58;42.55
75420;BME280;63998;52.488;13.428;2023-06-22T08:07:36;101454.00;;;26.49;42.03
75420;BME280;63998;52.488;13.428;2023-06-22T08:10:02;101451.75;;;26.41;41.49
75420;BME280;63998;52.488;13.428;2023-06-22T08:12:28;101454.78;;;26.34;41.20
75420;BME280;63998;52.488;13.428;2023-06-22T08:14:53;101455.34;;;26.40;41.67
75420;BME280;63998;52.488;13.428;2023-06-22T08:17:18;101457.59;;;26.48;41.34
75420;BME280;63998;52.488;13.428;2023-06-22T08:19:43;101456.63;;;26.66;41.58
75420;BME280;63998;52.488;13.428;2023-06-22T08:22:09;101458.78;;;26.75;41.06
75420;BME280;63998;52.488;13.428;2023-06-22T08:24:34;101457.03;;;26.92;40.69
75420;BME280;63998;52.488;13.428;2023-06-22T08:26:59;101451.22;;;27.01;40.61
75420;BME280;63998;52.488;13.428;2023-06-22T08:29:24;101453.38;;;27.10;40.55
75420;BME280;63998;52.488;13.428;2023-06-22T08:31:50;101456.28;;;27.21;40.91
75420;BME280;63998;52.488;13.428;2023-06-22T08:34:15;101451.72;;;27.23;40.64
75420;BME280;63998;52.488;13.428;2023-06-22T08:36:40;101447.59;;;27.33;41.05
75420;BME280;63998;52.488;13.428;2023-06-22T08:39:08;101441.75;;;27.42;42.32
75420;BME280;63998;52.488;13.428;2023-06-22T08:41:34;101437.59;;;27.52;42.94
75420;BME280;63998;52.488;13.428;2023-06-22T08:43:59;101439.31;;;27.53;41.17
75420;BME280;63998;52.488;13.428;2023-06-22T08:46:24;101444.69;;;27.38;39.54
75420;BME280;63998;52.488;13.428;2023-06-22T08:48:58;101451.72;;;27.23;40.20
75420;BME280;63998;52.488;13.428;2023-06-22T08:51:24;101446.56;;;27.20;40.46
75420;BME280;63998;52.488;13.428;2023-06-22T08:53:49;101449.84;;;27.25;39.77
75420;BME280;63998;52.488;13.428;2023-06-22T08:56:15;101443.31;;;27.31;39.86
75420;BME280;63998;52.488;13.428;2023-06-22T08:58:40;101452.19;;;27.31;38.57
75420;BME280;63998;52.488;13.428;2023-06-22T09:01:05;101448.44;;;27.49;38.28
75420;BME280;63998;52.488;13.428;2023-06-22T09:03:31;101450.84;;;27.70;37.63
75420;BME280;63998;52.488;13.428;2023-06-22T09:05:57;101440.38;;;27.67;37.35
75420;BME280;63998;52.488;13.428;2023-06-22T09:08:23;101448.63;;;27.78;38.02
75420;BME280;63998;52.488;13.428;2023-06-22T09:10:48;101433.28;;;27.96;39.47
75420;BME280;63998;52.488;13.428;2023-06-22T09:13:13;101434.19;;;28.10;39.37
75420;BME280;63998;52.488;13.428;2023-06-22T09:15:38;101447.28;;;28.15;39.21
75420;BME280;63998;52.488;13.428;2023-06-22T09:18:04;101440.38;;;28.27;39.28
75420;BME280;63998;52.488;13.428;2023-06-22T09:20:29;101436.56;;;28.31;37.42
75420;BME280;63998;52.488;13.428;2023-06-22T09:22:54;101427.88;;;28.41;37.57
75420;BME280;63998;52.488;13.428;2023-06-22T09:25:19;101428.19;;;28.51;37.20
75420;BME280;63998;52.488;13.428;2023-06-22T09:27:46;101433.53;;;28.65;38.09
75420;BME280;63998;52.488;13.428;2023-06-22T09:30:11;101426.63;;;28.75;37.79
75420;BME280;63998;52.488;13.428;2023-06-22T09:32:37;101428.53;;;28.73;36.18
75420;BME280;63998;52.488;13.428;2023-06-22T09:35:04;101430.66;;;28.82;37.74
75420;BME280;63998;52.488;13.428;2023-06-22T09:37:30;101425.50;;;28.93;36.83
75420;BME280;63998;52.488;13.428;2023-06-22T09:39:56;101419.00;;;28.83;36.19
75420;BME280;63998;52.488;13.428;2023-06-22T09:42:21;101422.25;;;28.60;35.48
75420;BME280;63998;52.488;13.428;2023-06-22T09:44:46;101421.09;;;28.50;36.73
75420;BME280;63998;52.488;13.428;2023-06-22T09:47:12;101418.63;;;28.61;36.86
75420;BME280;63998;52.488;13.428;2023-06-22T09:49:37;101417.09;;;28.57;35.91
75420;BME280;63998;52.488;13.428;2023-06-22T09:52:02;101413.28;;;28.47;35.74
75420;BME280;63998;52.488;13.428;2023-06-22T09:54:28;101420.31;;;28.34;36.15
75420;BME280;63998;52.488;13.428;2023-06-22T09:56:53;101413.25;;;28.33;35.71
75420;BME280;63998;52.488;13.428;2023-06-22T09:59:18;101418.50;;;28.20;36.35
75420;BME280;63998;52.488;13.428;2023-06-22T10:01:43;101412.03;;;28.38;36.47
75420;BME280;63998;52.488;13.428;2023-06-22T10:04:09;101411.75;;;28.57;36.60
75420;BME280;63998;52.488;13.428;2023-06-22T10:06:34;101423.59;;;28.67;37.37
75420;BME280;63998;52.488;13.428;2023-06-22T10:08:59;101421.41;;;28.88;38.58
75420;BME280;63998;52.488;13.428;2023-06-22T10:11:25;101423.56;;;29.10;38.57
75420;BME280;63998;52.488;13.428;2023-06-22T10:13:54;101419.88;;;29.25;37.48
75420;BME280;63998;52.488;13.428;2023-06-22T10:16:19;101420.50;;;29.16;35.62
75420;BME280;63998;52.488;13.428;2023-06-22T10:18:45;101407.47;;;29.24;35.40
75420;BME280;63998;52.488;13.428;2023-06-22T10:21:10;101411.88;;;29.25;35.44
75420;BME280;63998;52.488;13.428;2023-06-22T10:23:35;101407.91;;;29.30;35.77
75420;BME280;63998;52.488;13.428;2023-06-22T10:26:00;101404.69;;;29.25;34.44
75420;BME280;63998;52.488;13.428;2023-06-22T10:28:26;101409.63;;;29.05;34.07
75420;BME280;63998;52.488;13.428;2023-06-22T10:30:51;101399.91;;;28.75;34.40
75420;BME280;63998;52.488;13.428;2023-06-22T10:33:16;101400.25;;;28.98;35.31
75420;BME280;63998;52.488;13.428;2023-06-22T10:35:41;101394.09;;;29.24;35.21
75420;BME280;63998;52.488;13.428;2023-06-22T10:38:07;101388.88;;;29.35;34.41
75420;BME280;63998;52.488;13.428;2023-06-22T10:40:32;101386.97;;;29.37;34.66
75420;BME280;63998;52.488;13.428;2023-06-22T10:42:58;101385.13;;;29.52;34.77
75420;BME280;63998;52.488;13.428;2023-06-22T10:45:23;101390.97;;;29.17;33.63
75420;BME280;63998;52.488;13.428;2023-06-22T10:47:48;101390.97;;;29.44;33.68
75420;BME280;63998;52.488;13.428;2023-06-22T10:50:14;101388.03;;;29.61;33.63
75420;BME280;63998;52.488;13.428;2023-06-22T10:52:39;101388.63;;;29.92;34.07
75420;BME280;63998;52.488;13.428;2023-06-22T10:55:06;101374.53;;;30.41;34.19
75420;BME280;63998;52.488;13.428;2023-06-22T10:57:32;101378.78;;;30.43;32.07
75420;BME280;63998;52.488;13.428;2023-06-22T10:59:57;101372.38;;;30.58;31.90
75420;BME280;63998;52.488;13.428;2023-06-22T11:02:23;101369.56;;;30.60;31.27
75420;BME280;63998;52.488;13.428;2023-06-22T11:04:48;101365.28;;;30.45;30.83
75420;BME280;63998;52.488;13.428;2023-06-22T11:07:15;101365.47;;;30.42;32.03
75420;BME280;63998;52.488;13.428;2023-06-22T11:09:40;101356.16;;;30.34;31.51
75420;BME280;63998;52.488;13.428;2023-06-22T11:12:06;101359.06;;;30.31;31.58
75420;BME280;63998;52.488;13.428;2023-06-22T11:14:31;101357.75;;;30.50;31.99
75420;BME280;63998;52.488;13.428;2023-06-22T11:16:58;101363.47;;;30.58;31.73
75420;BME280;63998;52.488;13.428;2023-06-22T11:19:24;101367.63;;;30.75;31.99
75420;BME280;63998;52.488;13.428;2023-06-22T11:21:49;101360.28;;;30.89;31.65
75420;BME280;63998;52.488;13.428;2023-06-22T11:24:14;101346.53;;;30.81;31.17
75420;BME280;63998;52.488;13.428;2023-06-22T11:26:40;101340.69;;;31.13;31.93
75420;BME280;63998;52.488;13.428;2023-06-22T11:29:06;101335.91;;;31.16;30.02
75420;BME280;63998;52.488;13.428;2023-06-22T11:31:33;101331.97;;;31.33;29.47
75420;BME280;63998;52.488;13.428;2023-06-22T11:33:59;101334.00;;;31.05;30.08
75420;BME280;63998;52.488;13.428;2023-06-22T11:36:24;101326.91;;;31.04;30.23
75420;BME280;63998;52.488;13.428;2023-06-22T11:38:50;101326.50;;;30.74;30.06
75420;BME280;63998;52.488;13.428;2023-06-22T11:41:16;101329.28;;;30.23;30.60
75420;BME280;63998;52.488;13.428;2023-06-22T11:43:41;101325.56;;;30.75;30.83
75420;BME280;63998;52.488;13.428;2023-06-22T11:46:07;101327.13;;;31.38;30.52
75420;BME280;63998;52.488;13.428;2023-06-22T11:48:32;101331.78;;;31.47;29.32
75420;BME280;63998;52.488;13.428;2023-06-22T11:50:57;101337.50;;;31.77;29.48
75420;BME280;63998;52.488;13.428;2023-06-22T11:53:25;101335.66;;;32.24;29.89
75420;BME280;63998;52.488;13.428;2023-06-22T11:55:51;101346.41;;;32.46;28.85
75420;BME280;63998;52.488;13.428;2023-06-22T11:58:16;101346.88;;;32.63;29.20
75420;BME280;63998;52.488;13.428;2023-06-22T12:00:42;101344.63;;;32.90;29.52
75420;BME280;63998;52.488;13.428;2023-06-22T12:03:07;101338.94;;;33.15;29.97
75420;BME280;63998;52.488;13.428;2023-06-22T12:05:33;101339.41;;;33.32;29.06
75420;BME280;63998;52.488;13.428;2023-06-22T12:07:58;101331.81;;;33.14;29.16
75420;BME280;63998;52.488;13.428;2023-06-22T12:10:25;101327.47;;;33.13;28.63
75420;BME280;63998;52.488;13.428;2023-06-22T12:12:50;101330.41;;;33.10;28.82
75420;BME280;63998;52.488;13.428;2023-06-22T12:15:15;101321.66;;;32.86;28.27
75420;BME280;63998;52.488;13.428;2023-06-22T12:17:41;101309.06;;;32.64;28.43
75420;BME280;63998;52.488;13.428;2023-06-22T12:20:06;101311.09;;;32.94;28.77
75420;BME280;63998;52.488;13.428;2023-06-22T12:22:33;101314.41;;;33.30;27.93
75420;BME280;63998;52.488;13.428;2023-06-22T12:24:58;101308.06;;;33.31;28.22
75420;BME280;63998;52.488;13.428;2023-06-22T12:27:23;101304.66;;;33.17;27.51
75420;BME280;63998;52.488;13.428;2023-06-22T12:29:48;101295.63;;;33.39;27.89
75420;BME280;63998;52.488;13.428;2023-06-22T12:32:14;101290.06;;;33.52;27.31
75420;BME280;63998;52.488;13.428;2023-06-22T12:34:42;101289.28;;;33.61;26.29
75420;BME280;63998;52.488;13.428;2023-06-22T12:37:07;101291.28;;;33.89;27.54
75420;BME280;63998;52.488;13.428;2023-06-22T12:39:32;101288.97;;;34.06;27.52
75420;BME280;63998;52.488;13.428;2023-06-22T12:41:58;101290.97;;;34.34;27.00
75420;BME280;63998;52.488;13.428;2023-06-22T12:44:23;101279.69;;;34.69;26.83